createdAt,value
2023-05-13T00:00:53.303Z,6.40
2023-05-13T00:03:38.847Z,6.07
2023-05-13T00:06:24.138Z,6.28
2023-05-13T00:09:09.320Z,5.97
2023-05-13T00:11:54.270Z,6.07
2023-05-13T00:14:39.607Z,6.00
2023-05-13T00:17:24.952Z,6.40
2023-05-13T00:20:10.528Z,5.95
2023-05-13T00:22:55.565Z,7.85
2023-05-13T00:25:40.607Z,7.93
2023-05-13T00:28:25.533Z,8.38
2023-05-13T00:31:10.763Z,8.20
2023-05-13T00:33:56.139Z,8.57
2023-05-13T00:36:41.073Z,8.63
2023-05-13T00:39:26.155Z,8.57
2023-05-13T00:42:11.450Z,8.57
2023-05-13T00:44:56.806Z,9.13
2023-05-13T00:47:42.520Z,9.60
2023-05-13T00:50:27.898Z,8.60
2023-05-13T00:53:13.213Z,8.85
2023-05-13T00:55:58.627Z,8.77
2023-05-13T00:58:43.882Z,8.75
2023-05-13T01:04:42.716Z,10.13
2023-05-13T01:07:46.309Z,9.55
2023-05-13T01:10:38.079Z,7.88
2023-05-13T01:13:26.650Z,9.75
2023-05-13T01:16:38.190Z,10.23
2023-05-13T01:19:43.830Z,10.93
2023-05-13T01:22:29.107Z,10.18
2023-05-13T01:25:14.054Z,10.45
2023-05-13T01:27:59.565Z,10.35
2023-05-13T01:30:46.713Z,9.25
2023-05-13T01:33:32.810Z,9.73
2023-05-13T01:36:18.230Z,10.13
2023-05-13T01:39:04.506Z,8.65
2023-05-13T01:41:49.944Z,8.70
2023-05-13T01:44:35.402Z,9.00
2023-05-13T01:47:20.452Z,8.88
2023-05-13T01:50:06.551Z,9.85
2023-05-13T01:52:51.911Z,9.35
2023-05-13T01:55:37.028Z,9.23
2023-05-13T01:58:22.072Z,9.88
2023-05-13T02:01:07.115Z,10.05
2023-05-13T02:03:52.212Z,10.55
2023-05-13T02:06:37.454Z,10.35
2023-05-13T02:09:22.494Z,11.23
2023-05-13T02:12:08.425Z,10.93
2023-05-13T02:14:54.413Z,10.02
2023-05-13T02:17:39.375Z,10.63
2023-05-13T02:20:24.828Z,10.20
2023-05-13T02:23:10.158Z,10.43
2023-05-13T02:25:55.229Z,11.73
2023-05-13T02:28:40.401Z,11.93
2023-05-13T02:31:25.892Z,11.35
2023-05-13T02:34:11.216Z,11.60
2023-05-13T02:36:56.702Z,11.95
2023-05-13T02:39:41.486Z,11.27
2023-05-13T02:42:26.430Z,11.93
2023-05-13T02:45:12.018Z,11.68
2023-05-13T02:47:57.085Z,11.75
2023-05-13T02:50:42.002Z,11.13
2023-05-13T02:53:27.001Z,11.05
2023-05-13T02:56:12.371Z,11.20
2023-05-13T02:58:57.170Z,11.70
2023-05-13T03:01:41.883Z,12.32
2023-05-13T03:04:27.277Z,12.30
2023-05-13T03:07:12.158Z,12.30
2023-05-13T03:09:56.947Z,13.38
2023-05-13T03:12:42.242Z,12.68
2023-05-13T03:15:27.512Z,14.07
2023-05-13T03:18:12.720Z,13.80
2023-05-13T03:20:57.617Z,14.75
2023-05-13T03:23:42.758Z,14.10
2023-05-13T03:26:27.958Z,14.90
2023-05-13T03:29:12.961Z,14.40
2023-05-13T03:31:58.723Z,13.25
2023-05-13T03:34:43.751Z,13.45
2023-05-13T03:37:28.511Z,12.53
2023-05-13T03:40:14.182Z,13.05
2023-05-13T03:42:59.221Z,12.07
2023-05-13T03:45:44.113Z,14.50
2023-05-13T03:48:29.161Z,14.57
2023-05-13T03:51:13.960Z,13.97
2023-05-13T03:53:58.799Z,14.37
2023-05-13T03:56:43.566Z,12.90
2023-05-13T03:59:28.587Z,12.93
2023-05-13T04:02:14.080Z,13.70
2023-05-13T04:04:59.498Z,13.70
2023-05-13T04:07:44.804Z,13.75
2023-05-13T04:10:29.876Z,12.32
2023-05-13T04:13:14.655Z,12.35
2023-05-13T04:15:59.484Z,12.35
2023-05-13T04:18:44.367Z,13.32
2023-05-13T04:21:29.660Z,12.40
2023-05-13T04:24:14.475Z,12.60
2023-05-13T04:27:01.298Z,13.20
2023-05-13T04:29:46.784Z,12.55
2023-05-13T04:32:31.935Z,13.18
2023-05-13T04:35:16.979Z,13.88
2023-05-13T04:38:02.471Z,12.88
2023-05-13T04:40:47.381Z,12.63
2023-05-13T04:43:32.328Z,13.48
2023-05-13T04:46:17.400Z,11.93
2023-05-13T04:49:02.151Z,11.95
2023-05-13T04:51:47.563Z,13.02
2023-05-13T04:54:32.928Z,12.43
2023-05-13T04:57:17.846Z,12.75
2023-05-13T05:00:03.520Z,12.43
2023-05-13T05:02:48.833Z,11.77
2023-05-13T05:05:34.198Z,12.07
2023-05-13T05:08:19.523Z,11.48
2023-05-13T05:11:04.492Z,10.80
2023-05-13T05:13:49.746Z,11.10
2023-05-13T05:16:35.100Z,11.60
2023-05-13T05:19:20.041Z,12.10
2023-05-13T05:22:05.406Z,12.30
2023-05-13T05:24:50.742Z,10.93
2023-05-13T05:27:35.985Z,10.52
2023-05-13T05:30:21.076Z,9.82
2023-05-13T05:33:07.319Z,9.50
2023-05-13T05:35:52.301Z,8.63
2023-05-13T05:38:37.243Z,7.60
2023-05-13T05:41:22.232Z,8.35
2023-05-13T05:44:07.252Z,7.43
2023-05-13T05:46:52.572Z,7.65
2023-05-13T05:49:37.528Z,7.25
2023-05-13T05:52:22.652Z,7.40
2023-05-13T05:55:07.929Z,7.35
2023-05-13T05:57:52.848Z,6.88
2023-05-13T06:00:38.188Z,6.82
2023-05-13T06:03:23.356Z,6.72
2023-05-13T06:06:08.627Z,7.07
2023-05-13T06:08:53.565Z,7.20
2023-05-13T06:11:38.388Z,6.43
2023-05-13T06:14:23.405Z,7.35
2023-05-13T06:17:08.708Z,8.00
2023-05-13T06:19:54.024Z,18.08
2023-05-13T06:22:40.202Z,7.10
2023-05-13T06:25:25.454Z,6.80
2023-05-13T06:28:11.302Z,6.82
2023-05-13T06:30:56.144Z,7.35
2023-05-13T06:33:41.161Z,6.65
2023-05-13T06:36:26.472Z,6.30
2023-05-13T06:39:12.238Z,5.95
2023-05-13T06:41:57.441Z,6.47
2023-05-13T06:44:42.257Z,5.97
2023-05-13T06:47:27.132Z,6.80
2023-05-13T06:50:12.468Z,6.15
2023-05-13T06:52:57.731Z,6.40
2023-05-13T06:55:42.542Z,6.60
2023-05-13T06:58:28.006Z,7.60
2023-05-13T07:01:13.111Z,6.75
2023-05-13T07:03:58.353Z,6.45
2023-05-13T07:06:43.727Z,6.45
2023-05-13T07:09:28.637Z,6.50
2023-05-13T07:12:14.366Z,6.18
2023-05-13T07:14:59.697Z,5.80
2023-05-13T07:17:45.302Z,6.22
2023-05-13T07:20:30.728Z,6.13
2023-05-13T07:23:16.047Z,6.22
2023-05-13T07:26:00.976Z,5.97
2023-05-13T07:28:45.902Z,6.07
2023-05-13T07:31:30.857Z,6.55
2023-05-13T07:34:16.473Z,6.38
2023-05-13T07:37:02.000Z,6.30
2023-05-13T07:39:47.465Z,6.30
2023-05-13T07:42:32.383Z,6.15
2023-05-13T07:45:17.304Z,43.30
2023-05-13T07:48:02.320Z,14.18
2023-05-13T07:50:47.680Z,6.32
2023-05-13T07:53:32.676Z,5.95
2023-05-13T07:56:17.547Z,5.05
2023-05-13T07:59:02.454Z,5.10
2023-05-13T08:01:47.459Z,5.15
2023-05-13T08:04:32.852Z,5.13
2023-05-13T08:07:18.302Z,5.07
2023-05-13T08:10:03.955Z,5.13
2023-05-13T08:12:48.936Z,4.78
2023-05-13T08:15:33.745Z,4.85
2023-05-13T08:18:19.240Z,4.90
2023-05-13T08:21:04.299Z,4.85
2023-05-13T08:23:52.401Z,5.05
2023-05-13T08:26:37.467Z,5.28
2023-05-13T08:29:22.578Z,5.07
2023-05-13T08:32:07.680Z,4.90
2023-05-13T08:34:52.913Z,4.63
2023-05-13T08:37:38.061Z,5.13
2023-05-13T08:40:23.662Z,5.05
2023-05-13T08:43:10.209Z,5.05
2023-05-13T08:45:56.858Z,4.97
2023-05-13T08:48:42.649Z,4.90
2023-05-13T08:51:28.014Z,4.93
2023-05-13T08:54:13.996Z,4.88
2023-05-13T08:56:59.255Z,4.80
2023-05-13T08:59:44.282Z,5.40
2023-05-13T09:02:29.660Z,5.00
2023-05-13T09:05:15.289Z,4.70
2023-05-13T09:08:07.191Z,4.75
2023-05-13T09:10:53.173Z,5.00
2023-05-13T09:13:38.050Z,5.10
2023-05-13T09:16:23.660Z,4.70
2023-05-13T09:19:08.932Z,4.68
2023-05-13T09:21:54.218Z,4.82
2023-05-13T09:24:39.212Z,4.32
2023-05-13T09:27:36.628Z,4.82
2023-05-13T09:30:21.766Z,4.95
2023-05-13T09:33:13.454Z,4.40
2023-05-13T09:35:58.888Z,4.50
2023-05-13T09:38:44.492Z,4.72
2023-05-13T09:41:33.977Z,4.90
2023-05-13T09:44:19.484Z,4.93
2023-05-13T09:47:04.428Z,4.28
2023-05-13T09:49:56.482Z,4.97
2023-05-13T09:52:41.276Z,4.47
2023-05-13T09:55:28.795Z,4.20
2023-05-13T09:58:14.486Z,4.15
2023-05-13T10:01:00.040Z,4.35
2023-05-13T10:03:46.192Z,4.47
2023-05-13T10:06:32.532Z,4.68
2023-05-13T10:09:18.265Z,4.38
2023-05-13T10:12:06.715Z,4.53
2023-05-13T10:14:53.250Z,4.38
2023-05-13T10:17:39.534Z,4.20
2023-05-13T10:20:25.176Z,4.53
2023-05-13T10:23:10.834Z,4.43
2023-05-13T10:25:56.171Z,4.70
2023-05-13T10:28:43.245Z,4.30
2023-05-13T10:31:29.354Z,4.63
2023-05-13T10:34:14.606Z,4.47
2023-05-13T10:37:15.194Z,4.30
2023-05-13T10:40:22.740Z,4.50
2023-05-13T10:43:28.073Z,5.10
2023-05-13T10:46:13.799Z,4.30
2023-05-13T10:48:59.768Z,4.18
2023-05-13T10:51:49.681Z,4.18
2023-05-13T10:54:40.847Z,4.65
2023-05-13T10:57:35.835Z,4.80
2023-05-13T11:00:31.058Z,4.43
2023-05-13T11:03:36.382Z,4.00
2023-05-13T11:06:23.747Z,4.30
2023-05-13T11:09:29.015Z,4.40
2023-05-13T11:12:15.330Z,4.30
2023-05-13T11:15:00.548Z,4.07
2023-05-13T11:17:46.073Z,4.53
2023-05-13T11:20:39.954Z,4.55
2023-05-13T11:23:50.254Z,4.70
2023-05-13T11:26:55.478Z,4.63
2023-05-13T11:29:49.274Z,4.57
2023-05-13T11:32:52.291Z,4.57
2023-05-13T11:35:37.757Z,4.70
2023-05-13T11:38:24.799Z,4.70
2023-05-13T11:41:10.167Z,4.90
2023-05-13T11:43:55.495Z,4.57
2023-05-13T11:46:54.586Z,4.68
2023-05-13T11:49:45.493Z,4.18
2023-05-13T11:52:30.447Z,4.22
2023-05-13T11:55:36.188Z,4.28
2023-05-13T11:58:21.466Z,4.18
2023-05-13T12:01:06.653Z,4.20
2023-05-13T12:04:01.204Z,4.05
2023-05-13T12:06:46.338Z,4.53
2023-05-13T12:09:31.289Z,4.50
2023-05-13T12:12:17.870Z,4.25
2023-05-13T12:15:04.987Z,4.75
2023-05-13T12:17:50.716Z,5.35
2023-05-13T12:20:36.093Z,4.80
2023-05-13T12:23:21.323Z,4.80
2023-05-13T12:26:08.041Z,4.85
2023-05-13T12:28:59.605Z,4.15
2023-05-13T12:32:04.072Z,4.32
2023-05-13T12:34:50.129Z,4.40
2023-05-13T12:37:35.137Z,4.00
2023-05-13T12:40:20.139Z,4.20
2023-05-13T12:43:04.984Z,4.80
2023-05-13T12:45:52.974Z,4.72
2023-05-13T12:48:39.132Z,4.35
2023-05-13T12:51:25.179Z,3.92
2023-05-13T12:54:11.204Z,4.15
2023-05-13T12:56:56.523Z,4.05
2023-05-13T12:59:41.631Z,4.05
2023-05-13T13:02:26.692Z,4.38
2023-05-13T13:05:12.271Z,4.72
2023-05-13T13:07:57.674Z,5.20
2023-05-13T13:10:44.041Z,4.03
2023-05-13T13:13:28.924Z,3.60
2023-05-13T13:16:14.666Z,3.70
2023-05-13T13:19:01.815Z,3.58
2023-05-13T13:21:47.169Z,3.58
2023-05-13T13:24:32.043Z,4.00
2023-05-13T13:27:16.862Z,3.70
2023-05-13T13:30:02.119Z,3.58
2023-05-13T13:32:47.359Z,3.90
2023-05-13T13:35:32.479Z,3.67
2023-05-13T13:38:17.927Z,3.90
2023-05-13T13:41:02.797Z,3.90
2023-05-13T13:43:47.570Z,3.67
2023-05-13T13:46:32.441Z,3.65
2023-05-13T13:49:23.624Z,3.90
2023-05-13T13:52:09.470Z,3.53
2023-05-13T13:54:54.801Z,3.33
2023-05-13T13:57:40.402Z,3.47
2023-05-13T14:00:25.937Z,3.60
2023-05-13T14:03:11.062Z,3.95
2023-05-13T14:05:56.429Z,4.05
2023-05-13T14:08:41.231Z,3.58
2023-05-13T14:11:26.086Z,3.67
2023-05-13T14:14:10.958Z,3.83
2023-05-13T14:16:56.546Z,3.75
2023-05-13T14:19:41.876Z,3.95
2023-05-13T14:22:26.792Z,4.00
2023-05-13T14:25:11.980Z,4.45
2023-05-13T14:27:57.364Z,3.90
2023-05-13T14:30:42.283Z,4.07
2023-05-13T14:33:27.649Z,3.80
2023-05-13T14:36:12.654Z,4.20
2023-05-13T14:38:57.755Z,4.07
2023-05-13T14:41:42.489Z,5.30
2023-05-13T14:44:27.953Z,3.75
2023-05-13T14:47:12.920Z,3.80
2023-05-13T14:49:58.065Z,3.75
2023-05-13T14:52:43.140Z,4.25
2023-05-13T14:55:28.077Z,3.90
2023-05-13T14:58:13.433Z,4.20
2023-05-13T15:00:58.553Z,4.47
2023-05-13T15:03:44.062Z,4.00
2023-05-13T15:06:29.449Z,3.80
2023-05-13T15:09:14.765Z,3.70
2023-05-13T15:12:00.012Z,3.63
2023-05-13T15:14:57.052Z,4.03
2023-05-13T15:17:42.214Z,3.53
2023-05-13T15:20:27.529Z,3.45
2023-05-13T15:23:13.130Z,3.58
2023-05-13T15:25:58.234Z,27.40
2023-05-13T15:28:43.688Z,3.83
2023-05-13T15:31:30.880Z,3.50
2023-05-13T15:34:16.104Z,3.83
2023-05-13T15:37:00.848Z,3.65
2023-05-13T15:39:46.150Z,3.88
2023-05-13T15:42:31.087Z,3.42
2023-05-13T15:45:16.509Z,3.50
2023-05-13T15:48:02.099Z,3.70
2023-05-13T15:50:47.339Z,3.38
2023-05-13T15:53:32.348Z,3.63
2023-05-13T15:56:17.394Z,3.75
2023-05-13T15:59:02.747Z,3.60
2023-05-13T16:01:47.745Z,5.32
2023-05-13T16:04:32.874Z,6.72
2023-05-13T16:07:18.176Z,5.20
2023-05-13T16:10:03.574Z,3.60
2023-05-13T16:12:49.031Z,3.50
2023-05-13T16:15:34.247Z,3.80
2023-05-13T16:18:19.198Z,4.28
2023-05-13T16:21:05.053Z,3.70
2023-05-13T16:23:50.760Z,3.67
2023-05-13T16:26:35.853Z,3.70
2023-05-13T16:29:21.331Z,4.10
2023-05-13T16:32:06.684Z,3.63
2023-05-13T16:34:52.290Z,3.70
2023-05-13T16:37:37.581Z,3.88
2023-05-13T16:40:22.640Z,4.18
2023-05-13T16:43:07.919Z,3.97
2023-05-13T16:45:53.425Z,3.60
2023-05-13T16:48:39.089Z,3.80
2023-05-13T16:51:24.254Z,4.10
2023-05-13T16:54:09.327Z,3.83
2023-05-13T16:56:54.717Z,3.70
2023-05-13T16:59:40.042Z,3.90
2023-05-13T17:02:25.690Z,4.82
2023-05-13T17:05:10.672Z,7.78
2023-05-13T17:07:56.002Z,5.60
2023-05-13T17:10:40.811Z,3.60
2023-05-13T17:13:25.924Z,4.60
2023-05-13T17:16:11.358Z,3.70
2023-05-13T17:18:59.080Z,4.13
2023-05-13T17:21:44.924Z,4.25
2023-05-13T17:24:30.258Z,7.03
2023-05-13T17:27:15.646Z,4.47
2023-05-13T17:30:01.581Z,3.90
2023-05-13T17:32:46.707Z,3.85
2023-05-13T17:35:32.154Z,3.55
2023-05-13T17:38:17.738Z,3.78
2023-05-13T17:41:03.266Z,4.07
2023-05-13T17:43:48.338Z,3.95
2023-05-13T17:46:33.712Z,3.47
2023-05-13T17:49:19.273Z,4.30
2023-05-13T17:52:04.636Z,4.20
2023-05-13T17:54:50.036Z,4.00
2023-05-13T17:57:35.449Z,4.25
2023-05-13T18:00:21.013Z,3.90
2023-05-13T18:03:06.725Z,4.30
2023-05-13T18:05:52.327Z,4.00
2023-05-13T18:08:37.478Z,4.20
2023-05-13T18:11:22.205Z,4.10
2023-05-13T18:14:07.492Z,3.92
2023-05-13T18:16:52.345Z,4.20
2023-05-13T18:19:37.282Z,3.90
2023-05-13T18:22:22.983Z,4.30
2023-05-13T18:25:08.656Z,4.20
2023-05-13T18:27:54.296Z,4.00
2023-05-13T18:30:39.258Z,4.00
2023-05-13T18:33:24.602Z,3.75
2023-05-13T18:36:10.303Z,3.58
2023-05-13T18:38:55.371Z,3.75
2023-05-13T18:41:40.430Z,3.40
2023-05-13T18:44:25.761Z,3.80
2023-05-13T18:47:10.853Z,4.10
2023-05-13T18:49:55.723Z,4.05
2023-05-13T18:52:40.615Z,4.35
2023-05-13T18:55:26.093Z,5.03
2023-05-13T18:58:11.497Z,4.82
2023-05-13T19:00:57.104Z,5.57
2023-05-13T19:03:42.313Z,5.15
2023-05-13T19:06:28.186Z,4.80
2023-05-13T19:09:13.251Z,4.25
2023-05-13T19:11:58.615Z,3.88
2023-05-13T19:14:43.529Z,5.15
2023-05-13T19:17:28.876Z,7.10
2023-05-13T19:20:16.359Z,5.78
2023-05-13T19:23:01.732Z,4.55
2023-05-13T19:25:46.715Z,4.20
2023-05-13T19:28:33.740Z,4.05
2023-05-13T19:31:18.712Z,4.80
2023-05-13T19:34:04.087Z,4.60
2023-05-13T19:36:49.144Z,4.65
2023-05-13T19:39:34.370Z,5.28
2023-05-13T19:42:19.579Z,4.70
2023-05-13T19:45:05.348Z,5.57
2023-05-13T19:47:50.762Z,4.97
2023-05-13T19:50:36.131Z,5.53
2023-05-13T19:53:21.635Z,5.07
2023-05-13T19:56:07.121Z,5.50
2023-05-13T19:58:52.324Z,5.50
2023-05-13T20:01:37.242Z,6.25
2023-05-13T20:04:22.567Z,6.60
2023-05-13T20:07:09.348Z,6.68
2023-05-13T20:09:55.267Z,7.45
2023-05-13T20:12:40.249Z,7.57
2023-05-13T20:15:25.412Z,7.70
2023-05-13T20:18:10.597Z,6.70
2023-05-13T20:20:55.983Z,6.97
2023-05-13T20:23:40.954Z,7.53
2023-05-13T20:26:26.327Z,7.43
2023-05-13T20:29:11.865Z,8.13
2023-05-13T20:31:56.921Z,8.80
2023-05-13T20:34:42.211Z,8.65
2023-05-13T20:37:27.435Z,7.68
2023-05-13T20:40:12.656Z,7.57
2023-05-13T20:42:57.877Z,7.50
2023-05-13T20:45:43.344Z,7.68
2023-05-13T20:48:28.670Z,8.35
2023-05-13T20:51:14.038Z,7.85
2023-05-13T20:53:59.261Z,7.72
2023-05-13T20:56:44.326Z,8.65
2023-05-13T20:59:30.700Z,7.80
2023-05-13T21:02:15.999Z,8.00
2023-05-13T21:05:01.283Z,7.68
2023-05-13T21:07:46.240Z,8.50
2023-05-13T21:10:31.671Z,8.18
2023-05-13T21:13:17.111Z,7.85
2023-05-13T21:16:06.059Z,8.25
2023-05-13T21:18:50.915Z,7.50
2023-05-13T21:21:36.387Z,8.10
2023-05-13T21:24:21.596Z,8.63
2023-05-13T21:27:06.755Z,8.77
2023-05-13T21:29:51.980Z,8.88
2023-05-13T21:32:37.409Z,8.13
2023-05-13T21:35:22.733Z,8.18
2023-05-13T21:38:12.414Z,8.50
2023-05-13T21:40:57.977Z,8.20
2023-05-13T21:43:43.174Z,8.55
2023-05-13T21:46:28.036Z,8.27
2023-05-13T21:49:13.466Z,8.32
2023-05-13T21:51:58.814Z,8.73
2023-05-13T21:54:43.727Z,8.80
2023-05-13T21:57:29.228Z,11.57
2023-05-13T22:00:15.049Z,9.27
2023-05-13T22:03:00.349Z,9.25
2023-05-13T22:05:45.804Z,9.27
2023-05-13T22:08:30.813Z,9.25
2023-05-13T22:11:16.215Z,8.73
2023-05-13T22:14:01.479Z,10.25
2023-05-13T22:16:51.923Z,10.15
2023-05-13T22:19:42.810Z,9.73
2023-05-13T22:22:28.267Z,8.95
2023-05-13T22:25:13.350Z,10.35
2023-05-13T22:27:58.714Z,9.63
2023-05-13T22:30:43.851Z,11.63
2023-05-13T22:33:28.795Z,9.82
2023-05-13T22:36:13.957Z,10.55
2023-05-13T22:38:59.207Z,9.57
2023-05-13T22:41:44.961Z,9.68
2023-05-13T22:44:29.983Z,8.95
2023-05-13T22:47:14.917Z,8.52
2023-05-13T22:49:59.689Z,8.55
2023-05-13T22:52:44.648Z,8.68
2023-05-13T22:55:29.477Z,8.27
2023-05-13T22:58:14.967Z,7.30
2023-05-13T23:01:00.111Z,8.05
2023-05-13T23:03:45.544Z,8.20
2023-05-13T23:06:30.877Z,7.55
2023-05-13T23:09:15.597Z,7.50
2023-05-13T23:12:00.706Z,7.15
2023-05-13T23:14:45.856Z,7.75
2023-05-13T23:17:30.795Z,7.43
2023-05-13T23:20:16.208Z,8.65
2023-05-13T23:23:01.125Z,8.38
2023-05-13T23:25:47.870Z,8.50
2023-05-13T23:28:33.295Z,8.02
2023-05-13T23:31:18.707Z,8.27
2023-05-13T23:34:04.346Z,8.13
2023-05-13T23:36:49.694Z,9.32
2023-05-13T23:39:34.606Z,9.00
2023-05-13T23:42:19.348Z,8.52
2023-05-13T23:45:04.598Z,7.60
2023-05-13T23:47:50.069Z,8.10
2023-05-13T23:50:35.457Z,8.77
2023-05-13T23:53:20.525Z,8.00
2023-05-13T23:56:05.861Z,9.43
2023-05-13T23:58:50.757Z,11.07
